Time;durP1;ratioP1;P1;durP2;ratioP2;P2;SDS_P1;SDS_P2;PMS_P1;PMS_P2;Temp;Humidity;BMP_temperature;BMP_pressure;BME280_temperature;BME280_humidity;BME280_pressure;Samples;Min_cycle;Max_cycle;Signal;HPM_P1;HPM_P2
2022/04/07 00:01:56;;;;;;;5.13;2.77;;;10.60;99.00;;;;;;5031753;28;20494;-48
2022/04/07 00:04:23;;;;;;;7.37;5.33;;;10.60;98.90;;;;;;5039923;28;20555;-47
2022/04/07 00:06:49;;;;;;;4.07;3.47;;;10.60;98.90;;;;;;5047494;28;20726;-48
2022/04/07 00:09:18;;;;;;;5.77;4.40;;;10.60;98.90;;;;;;5049436;28;20897;-48
2022/04/07 00:11:44;;;;;;;2.70;2.20;;;10.60;99.00;;;;;;5040196;28;20541;-48
2022/04/07 00:14:11;;;;;;;4.70;4.30;;;10.50;98.70;;;;;;5031708;28;20494;-49
2022/04/07 00:16:38;;;;;;;4.63;4.23;;;10.40;98.70;;;;;;5042084;28;20484;-48
2022/04/07 00:19:05;;;;;;;4.23;2.43;;;10.50;99.10;;;;;;5032342;28;20498;-49
2022/04/07 00:21:38;;;;;;;2.20;1.97;;;10.60;98.80;;;;;;5044810;28;20550;-48
2022/04/07 00:24:06;;;;;;;6.83;4.00;;;10.50;98.90;;;;;;5024568;28;20484;-48
2022/04/07 00:26:35;;;;;;;5.37;3.83;;;10.50;99.00;;;;;;5038374;28;20499;-48
2022/04/07 00:29:02;;;;;;;3.00;2.43;;;10.60;99.00;;;;;;5054572;28;20514;-49
2022/04/07 00:31:38;;;;;;;4.27;3.30;;;10.60;98.80;;;;;;5056086;28;20498;-48
2022/04/07 00:34:05;;;;;;;5.33;3.77;;;10.70;98.90;;;;;;5053110;28;20481;-48
2022/04/07 00:36:32;;;;;;;4.53;2.60;;;10.50;99.20;;;;;;5040180;28;20483;-49
2022/04/07 00:38:59;;;;;;;4.97;4.03;;;10.50;99.90;;;;;;5033202;28;20493;-49
2022/04/07 00:41:26;;;;;;;3.90;3.60;;;10.50;99.90;;;;;;5070236;28;21048;-48
2022/04/07 00:43:54;;;;;;;3.00;2.70;;;10.50;99.70;;;;;;5056000;28;20494;-48
2022/04/07 00:46:21;;;;;;;3.80;3.10;;;10.40;99.70;;;;;;5060514;28;20520;-50
2022/04/07 00:48:47;;;;;;;3.73;2.87;;;10.40;99.70;;;;;;5058799;28;20939;-48
2022/04/07 00:51:14;;;;;;;4.33;4.00;;;10.40;99.70;;;;;;5054654;28;20574;-48
2022/04/07 00:53:41;;;;;;;2.43;2.03;;;10.40;99.90;;;;;;5057577;28;20481;-49
2022/04/07 00:56:08;;;;;;;4.93;4.50;;;10.40;99.90;;;;;;5039745;28;20489;-49
2022/04/07 00:58:36;;;;;;;7.13;3.80;;;10.40;99.90;;;;;;5046277;28;20485;-49
2022/04/07 01:01:04;;;;;;;3.10;2.53;;;10.20;99.80;;;;;;5058333;28;20547;-49
2022/04/07 01:03:31;;;;;;;3.30;1.80;;;10.40;99.90;;;;;;5036411;28;20513;-49
2022/04/07 01:05:59;;;;;;;5.53;3.20;;;10.40;99.70;;;;;;5052279;28;20989;-50
2022/04/07 01:08:26;;;;;;;4.63;3.20;;;10.40;99.70;;;;;;5036949;28;20612;-49
2022/04/07 01:10:53;;;;;;;2.83;2.13;;;10.40;99.90;;;;;;5054273;28;20490;-49
2022/04/07 01:13:20;;;;;;;3.43;3.10;;;10.20;99.90;;;;;;5026088;28;20572;-48
2022/04/07 01:15:47;;;;;;;4.33;4.03;;;10.20;99.90;;;;;;5019641;28;20518;-48
2022/04/07 01:18:15;;;;;;;3.43;2.63;;;10.20;99.90;;;;;;5022963;28;22120;-49
2022/04/07 01:20:41;;;;;;;3.17;2.40;;;10.10;99.90;;;;;;5042244;28;20509;-50
2022/04/07 01:23:09;;;;;;;3.17;2.87;;;10.20;99.90;;;;;;5045690;28;20490;-49
2022/04/07 01:25:38;;;;;;;4.13;2.67;;;10.30;99.90;;;;;;5034830;28;20483;-49
2022/04/07 01:28:05;;;;;;;5.17;2.70;;;10.30;99.90;;;;;;5032028;28;20511;-49
2022/04/07 01:30:32;;;;;;;3.67;2.90;;;10.30;99.90;;;;;;5044588;28;21122;-48
2022/04/07 01:33:01;;;;;;;5.47;4.80;;;10.10;99.90;;;;;;5044299;28;20517;-49
2022/04/07 01:35:29;;;;;;;3.80;2.97;;;10.20;99.90;;;;;;5042488;28;20528;-49
2022/04/07 01:37:57;;;;;;;6.37;2.37;;;10.10;99.90;;;;;;5041881;28;20493;-49
2022/04/07 01:40:28;;;;;;;19.60;5.90;;;10.00;99.90;;;;;;5030218;28;21035;-50
2022/04/07 01:42:57;;;;;;;2.60;2.10;;;10.00;99.90;;;;;;5029232;28;20474;-50
2022/04/07 01:45:25;;;;;;;5.77;5.27;;;9.90;99.90;;;;;;5039162;28;20481;-48
2022/04/07 01:47:53;;;;;;;6.03;2.47;;;10.20;99.90;;;;;;5029464;28;20852;-50
2022/04/07 01:50:24;;;;;;;5.20;2.73;;;10.10;99.90;;;;;;5045294;28;20540;-49
2022/04/07 01:52:51;;;;;;;5.00;2.40;;;;;;;;;;5036082;28;20482;-50
2022/04/07 01:55:18;;;;;;;4.47;3.83;;;10.00;99.90;;;;;;5031036;28;20483;-49
2022/04/07 01:57:46;;;;;;;4.60;3.40;;;10.00;99.90;;;;;;5022261;28;20494;-52
2022/04/07 02:00:16;;;;;;;3.37;3.07;;;10.00;99.90;;;;;;5051402;28;20531;-49
2022/04/07 02:02:45;;;;;;;4.17;3.87;;;10.00;99.90;;;;;;5060179;28;20503;-49
2022/04/07 02:05:12;;;;;;;5.70;4.43;;;9.90;99.90;;;;;;5042451;28;21206;-54
2022/04/07 02:07:40;;;;;;;9.10;4.63;;;9.90;99.90;;;;;;5037466;28;20817;-49
2022/04/07 02:10:09;;;;;;;3.43;2.70;;;10.00;99.90;;;;;;5034684;28;20475;-49
2022/04/07 02:12:37;;;;;;;4.70;2.40;;;10.10;99.90;;;;;;5047176;28;20495;-49
2022/04/07 02:15:05;;;;;;;5.93;3.83;;;10.10;99.90;;;;;;5038989;28;20486;-49
2022/04/07 02:17:33;;;;;;;6.50;3.90;;;10.10;99.90;;;;;;5033206;28;20873;-50
2022/04/07 02:20:01;;;;;;;9.03;3.67;;;10.00;99.90;;;;;;5042416;28;20486;-50
2022/04/07 02:22:28;;;;;;;9.73;3.20;;;10.00;99.90;;;;;;5049812;28;20476;-48
2022/04/07 02:24:56;;;;;;;4.90;4.30;;;9.90;99.90;;;;;;5058793;28;20474;-50
2022/04/07 02:27:24;;;;;;;2.90;2.70;;;10.00;99.90;;;;;;5039771;28;20499;-51
2022/04/07 02:29:50;;;;;;;5.23;3.33;;;10.00;99.90;;;;;;5038279;28;21030;-50
2022/04/07 02:32:18;;;;;;;7.03;4.10;;;10.00;99.90;;;;;;5046213;28;20495;-49
2022/04/07 02:34:46;;;;;;;4.53;3.40;;;9.90;99.90;;;;;;5021795;28;20487;-51
2022/04/07 02:37:13;;;;;;;3.80;3.50;;;9.90;99.90;;;;;;5020463;28;20490;-50
2022/04/07 02:39:39;;;;;;;6.90;3.33;;;9.90;99.90;;;;;;5023253;28;20497;-49
2022/04/07 02:42:06;;;;;;;3.57;2.37;;;9.90;99.90;;;;;;5022051;28;20521;-49
2022/04/07 02:44:33;;;;;;;5.23;3.23;;;10.00;99.90;;;;;;5021081;28;20497;-50
2022/04/07 02:46:59;;;;;;;6.10;4.47;;;10.10;99.90;;;;;;5022841;28;20478;-51
2022/04/07 02:49:26;;;;;;;3.63;2.97;;;10.00;99.90;;;;;;5022464;28;21115;-49
2022/04/07 02:51:54;;;;;;;5.87;2.40;;;10.10;99.90;;;;;;5019663;28;21159;-51
2022/04/07 02:54:21;;;;;;;2.90;2.67;;;10.10;99.90;;;;;;5029431;28;20483;-49
2022/04/07 02:56:48;;;;;;;2.63;2.33;;;10.10;99.90;;;;;;5022166;28;20486;-51
2022/04/07 02:59:14;;;;;;;10.73;2.90;;;10.20;99.90;;;;;;5022730;28;20563;-49
2022/04/07 03:01:42;;;;;;;3.70;2.00;;;10.30;99.90;;;;;;5022565;28;20491;-51
2022/04/07 03:04:08;;;;;;;2.90;1.97;;;10.30;99.90;;;;;;5018994;28;20483;-50
2022/04/07 03:06:35;;;;;;;6.23;2.23;;;10.40;99.90;;;;;;5022928;28;20519;-49
2022/04/07 03:09:03;;;;;;;3.10;2.90;;;10.10;99.90;;;;;;5022514;28;20480;-49
2022/04/07 03:11:30;;;;;;;2.20;1.93;;;10.20;99.90;;;;;;5045903;28;20475;-51
2022/04/07 03:13:57;;;;;;;1.73;1.33;;;10.20;99.90;;;;;;5041491;28;20478;-53
2022/04/07 03:16:24;;;;;;;3.33;2.50;;;10.20;99.90;;;;;;5037878;28;20472;-51
2022/04/07 03:18:50;;;;;;;2.40;1.77;;;10.10;99.90;;;;;;5021053;28;20482;-49
2022/04/07 03:21:17;;;;;;;4.80;2.10;;;10.20;99.90;;;;;;5021227;28;20483;-51
2022/04/07 03:23:44;;;;;;;2.60;2.10;;;10.20;99.90;;;;;;5022611;28;20502;-50
2022/04/07 03:26:12;;;;;;;3.43;1.93;;;10.10;99.90;;;;;;5023841;28;20481;-49
2022/04/07 03:28:39;;;;;;;7.20;2.00;;;10.10;99.90;;;;;;5026590;28;20485;-50
2022/04/07 03:31:06;;;;;;;2.23;1.90;;;10.10;99.90;;;;;;5041973;28;20489;-50
2022/04/07 03:33:32;;;;;;;1.80;0.97;;;10.00;99.90;;;;;;5024404;28;20510;-50
2022/04/07 03:35:59;;;;;;;6.17;1.77;;;10.00;99.90;;;;;;5038776;28;20938;-50
2022/04/07 03:38:26;;;;;;;2.20;1.23;;;10.00;99.90;;;;;;5067995;28;20997;-51
2022/04/07 03:40:53;;;;;;;1.70;1.10;;;10.00;99.90;;;;;;5059885;28;20474;-50
2022/04/07 03:43:21;;;;;;;4.70;1.67;;;10.00;99.90;;;;;;5060171;28;20481;-49
2022/04/07 03:45:48;;;;;;;2.63;1.27;;;10.10;99.90;;;;;;5054574;28;20477;-51
2022/04/07 03:48:14;;;;;;;2.40;1.73;;;10.10;99.90;;;;;;5058960;28;20475;-49
2022/04/07 03:50:41;;;;;;;6.53;2.50;;;10.00;99.90;;;;;;5036650;28;20917;-51
2022/04/07 03:53:08;;;;;;;2.10;1.90;;;9.90;99.90;;;;;;5048463;28;20574;-50
2022/04/07 03:55:35;;;;;;;5.73;1.73;;;10.00;99.90;;;;;;5050133;28;20494;-49
2022/04/07 03:58:02;;;;;;;3.97;1.97;;;9.90;99.90;;;;;;5043423;28;20503;-50
2022/04/07 04:00:30;;;;;;;3.43;2.10;;;9.90;99.90;;;;;;5042723;28;20485;-49
2022/04/07 04:02:57;;;;;;;2.07;1.80;;;9.80;99.90;;;;;;5041479;28;20473;-50
2022/04/07 04:05:24;;;;;;;3.40;2.37;;;9.90;99.90;;;;;;5039471;28;20473;-51
2022/04/07 04:07:50;;;;;;;2.70;1.83;;;9.80;99.90;;;;;;5055888;28;21022;-50
2022/04/07 04:10:17;;;;;;;3.00;1.67;;;9.90;99.90;;;;;;5061039;28;20475;-49
2022/04/07 04:12:44;;;;;;;6.87;2.20;;;10.00;99.90;;;;;;5048185;28;20536;-49
2022/04/07 04:15:11;;;;;;;3.10;1.43;;;9.80;99.90;;;;;;5047045;28;20484;-51
2022/04/07 04:17:39;;;;;;;4.00;1.73;;;9.90;99.90;;;;;;5047824;28;20490;-52
2022/04/07 04:20:06;;;;;;;3.03;1.30;;;9.90;99.90;;;;;;5044089;28;20743;-51
2022/04/07 04:22:33;;;;;;;1.80;1.43;;;9.70;99.90;;;;;;5026068;28;20489;-53
2022/04/07 04:25:00;;;;;;;3.43;1.60;;;9.90;99.90;;;;;;5022779;28;20479;-50
2022/04/07 04:27:27;;;;;;;6.30;1.97;;;10.00;99.90;;;;;;5034304;28;20990;-51
2022/04/07 04:29:53;;;;;;;1.90;1.40;;;9.90;99.90;;;;;;5040567;28;20486;-50
2022/04/07 04:32:20;;;;;;;2.10;1.60;;;9.90;99.90;;;;;;5038350;28;20512;-50
2022/04/07 04:34:48;;;;;;;5.03;1.47;;;9.90;99.90;;;;;;5022733;28;20478;-49
2022/04/07 04:37:15;;;;;;;2.20;1.90;;;9.90;99.90;;;;;;5023396;28;20475;-50
2022/04/07 04:39:42;;;;;;;8.27;2.23;;;9.90;99.90;;;;;;5053054;28;20548;-49
2022/04/07 04:42:09;;;;;;;6.10;1.70;;;10.10;99.90;;;;;;5022584;28;20535;-51
2022/04/07 04:44:36;;;;;;;2.57;1.47;;;10.00;99.90;;;;;;5034027;28;20501;-52
2022/04/07 04:47:03;;;;;;;2.00;1.40;;;10.00;99.90;;;;;;5057242;28;20478;-49
2022/04/07 04:49:30;;;;;;;5.87;1.43;;;10.10;99.90;;;;;;5034707;28;21001;-50
2022/04/07 04:51:58;;;;;;;1.73;1.17;;;10.10;99.90;;;;;;5024209;28;20879;-51
2022/04/07 04:54:25;;;;;;;2.10;1.03;;;10.20;99.90;;;;;;5022173;28;20490;-50
2022/04/07 04:56:51;;;;;;;7.30;1.33;;;10.20;99.90;;;;;;5022816;28;20945;-50
2022/04/07 04:59:18;;;;;;;1.60;1.00;;;10.30;99.90;;;;;;5024024;28;20536;-49
2022/04/07 05:01:44;;;;;;;3.70;1.70;;;10.30;99.90;;;;;;5034605;28;20480;-49
2022/04/07 05:04:11;;;;;;;8.20;1.37;;;10.10;99.90;;;;;;5048506;28;20492;-52
2022/04/07 05:06:38;;;;;;;2.10;1.40;;;9.90;99.90;;;;;;5029864;28;20830;-51
2022/04/07 05:09:06;;;;;;;1.90;1.17;;;10.00;99.90;;;;;;5046568;28;20488;-49
2022/04/07 05:11:33;;;;;;;6.80;1.33;;;10.10;99.90;;;;;;5036162;28;20481;-50
2022/04/07 05:14:00;;;;;;;1.87;1.30;;;9.90;99.90;;;;;;5037914;28;20488;-50
2022/04/07 05:16:27;;;;;;;1.60;0.93;;;10.00;99.90;;;;;;5036014;28;20540;-51
2022/04/07 05:18:54;;;;;;;6.37;1.67;;;9.90;99.90;;;;;;5023989;28;20486;-51
2022/04/07 05:21:21;;;;;;;3.10;0.90;;;9.70;99.90;;;;;;5022987;28;20505;-50
2022/04/07 05:23:48;;;;;;;2.00;0.80;;;9.80;99.90;;;;;;5021552;28;20482;-50
2022/04/07 05:26:16;;;;;;;7.53;1.20;;;9.90;99.90;;;;;;5017335;28;20946;-47
2022/04/07 05:28:43;;;;;;;3.57;1.70;;;9.80;99.90;;;;;;5046776;28;20482;-47
2022/04/07 05:31:10;;;;;;;2.53;1.53;;;9.80;99.90;;;;;;5041952;28;20484;-49
2022/04/07 05:33:37;;;;;;;6.80;1.70;;;9.60;99.90;;;;;;5032176;28;20551;-49
2022/04/07 05:36:04;;;;;;;2.87;1.73;;;9.60;99.90;;;;;;5037957;28;20491;-49
2022/04/07 05:38:31;;;;;;;1.80;1.40;;;9.70;99.90;;;;;;5032027;28;20496;-48
2022/04/07 05:40:57;;;;;;;9.40;1.77;;;9.60;99.90;;;;;;5032195;28;20540;-49
2022/04/07 05:43:25;;;;;;;3.43;1.90;;;9.60;99.90;;;;;;5028900;28;21215;-50
2022/04/07 05:45:52;;;;;;;3.13;1.67;;;9.70;99.90;;;;;;5035089;28;20553;-49
2022/04/07 05:48:19;;;;;;;6.93;1.20;;;9.80;99.90;;;;;;5018654;28;20486;-48
2022/04/07 05:50:46;;;;;;;2.23;1.33;;;9.70;99.90;;;;;;5021776;28;20479;-49
2022/04/07 05:53:13;;;;;;;2.03;1.00;;;9.70;99.90;;;;;;5025505;28;20481;-51
2022/04/07 05:55:40;;;;;;;6.93;1.70;;;9.70;99.90;;;;;;5021834;28;20484;-50
2022/04/07 05:58:09;;;;;;;2.73;1.60;;;9.70;99.90;;;;;;5021459;28;20479;-51
2022/04/07 06:00:37;;;;;;;1.90;1.40;;;9.80;99.90;;;;;;5021795;28;20487;-50
2022/04/07 06:03:04;;;;;;;7.73;2.40;;;9.70;99.90;;;;;;5020748;28;20480;-49
2022/04/07 06:05:31;;;;;;;1.80;1.03;;;9.80;99.90;;;;;;5020498;28;20564;-49
2022/04/07 06:07:59;;;;;;;3.97;2.53;;;9.80;99.90;;;;;;5024864;28;20483;-49
2022/04/07 06:10:26;;;;;;;12.30;1.47;;;9.70;99.90;;;;;;5034294;28;20543;-51
2022/04/07 06:12:53;;;;;;;7.63;1.70;;;9.70;99.90;;;;;;5048025;28;20484;-50
2022/04/07 06:15:19;;;;;;;2.10;1.50;;;9.70;99.90;;;;;;5041054;28;20483;-49
2022/04/07 06:17:48;;;;;;;3.73;1.33;;;9.70;99.90;;;;;;5043817;28;20481;-49
2022/04/07 06:20:15;;;;;;;1.90;1.00;;;9.60;99.90;;;;;;5043269;28;21422;-52
2022/04/07 06:22:44;;;;;;;1.80;1.37;;;9.80;99.90;;;;;;5048126;28;20488;-50
2022/04/07 06:25:11;;;;;;;2.53;1.40;;;9.70;99.90;;;;;;5033912;28;20484;-50
2022/04/07 06:27:39;;;;;;;3.57;1.80;;;9.80;99.90;;;;;;5026757;28;20486;-50
2022/04/07 06:30:09;;;;;;;8.47;1.73;;;9.80;99.90;;;;;;5019953;28;20485;-49
2022/04/07 06:32:36;;;;;;;6.10;1.70;;;9.90;99.90;;;;;;5031823;28;20479;-49
2022/04/07 06:35:06;;;;;;;2.00;1.50;;;9.80;99.90;;;;;;5020439;28;20473;-52
2022/04/07 06:37:33;;;;;;;1.90;1.60;;;9.80;99.90;;;;;;5023208;28;20558;-51
2022/04/07 06:40:01;;;;;;;1.50;0.70;;;9.90;99.90;;;;;;5034946;28;20472;-50
2022/04/07 06:42:28;;;;;;;2.73;1.10;;;10.00;99.90;;;;;;5059387;28;20915;-49
2022/04/07 06:44:55;;;;;;;3.97;1.60;;;10.00;99.90;;;;;;5038803;28;20492;-48
2022/04/07 06:47:23;;;;;;;2.40;1.70;;;10.10;99.90;;;;;;5027698;28;20982;-48
2022/04/07 06:49:50;;;;;;;1.60;0.80;;;10.20;99.90;;;;;;5022724;28;20573;-49
2022/04/07 06:52:19;;;;;;;5.10;1.30;;;10.10;99.90;;;;;;5022345;28;21411;-49
2022/04/07 06:54:45;;;;;;;2.73;1.07;;;10.00;99.90;;;;;;5018521;28;20545;-53
2022/04/07 06:57:12;;;;;;;2.10;1.07;;;10.20;99.90;;;;;;5019171;28;21433;-48
2022/04/07 06:59:39;;;;;;;8.40;1.47;;;10.20;99.90;;;;;;5030347;28;20483;-48
2022/04/07 07:02:06;;;;;;;2.40;1.23;;;;;;;;;;5021516;28;20879;-49
2022/04/07 07:04:33;;;;;;;1.60;1.00;;;10.20;99.90;;;;;;5027923;28;20489;-52
2022/04/07 07:07:00;;;;;;;5.77;1.30;;;10.20;99.90;;;;;;5055715;28;20495;-50
2022/04/07 07:09:28;;;;;;;1.80;1.20;;;10.10;99.90;;;;;;5033678;28;20491;-50
2022/04/07 07:11:55;;;;;;;1.67;1.10;;;10.00;99.90;;;;;;5022433;28;20483;-51
2022/04/07 07:14:21;;;;;;;10.63;1.50;;;10.10;99.90;;;;;;5020737;28;20483;-50
2022/04/07 07:16:48;;;;;;;4.93;0.90;;;10.20;99.90;;;;;;5058854;28;20542;-51
2022/04/07 07:19:18;;;;;;;3.03;1.40;;;10.00;99.90;;;;;;5062029;28;20563;-49
2022/04/07 07:21:44;;;;;;;9.03;1.97;;;10.10;99.90;;;;;;5041325;28;21399;-51
2022/04/07 07:24:11;;;;;;;1.90;1.03;;;10.00;99.90;;;;;;5018777;28;20519;-51
2022/04/07 07:26:39;;;;;;;4.07;1.07;;;10.10;99.90;;;;;;5047227;28;20476;-49
2022/04/07 07:29:06;;;;;;;8.13;1.47;;;10.10;99.90;;;;;;5044768;28;20477;-51
2022/04/07 07:31:35;;;;;;;1.67;0.97;;;10.30;99.90;;;;;;5026551;28;21064;-53
2022/04/07 07:34:03;;;;;;;2.47;1.00;;;10.30;99.90;;;;;;5018407;28;20482;-50
2022/04/07 07:36:30;;;;;;;5.83;0.90;;;10.20;99.90;;;;;;5022177;28;20858;-50
2022/04/07 07:38:56;;;;;;;2.00;1.33;;;10.30;99.90;;;;;;5033494;28;20484;-50
2022/04/07 07:41:23;;;;;;;2.83;1.10;;;10.30;99.90;;;;;;5034152;28;21095;-50
2022/04/07 07:43:51;;;;;;;8.90;1.33;;;10.20;99.90;;;;;;5039010;28;20489;-49
2022/04/07 07:46:18;;;;;;;1.70;1.10;;;10.40;99.90;;;;;;5034865;28;20767;-50
2022/04/07 07:48:45;;;;;;;2.77;1.10;;;10.40;99.90;;;;;;5022041;28;20879;-49
2022/04/07 07:51:11;;;;;;;7.00;1.30;;;10.30;99.90;;;;;;5024907;28;20475;-50
2022/04/07 07:53:38;;;;;;;2.90;1.80;;;10.20;99.90;;;;;;5020490;28;21108;-51
2022/04/07 07:56:05;;;;;;;5.77;1.70;;;10.30;99.90;;;;;;5018589;28;20529;-53
2022/04/07 07:58:32;;;;;;;9.33;1.80;;;10.30;99.90;;;;;;5021434;28;20487;-51
2022/04/07 08:01:00;;;;;;;1.90;1.07;;;10.30;99.90;;;;;;5021451;28;20884;-52
2022/04/07 08:03:27;;;;;;;1.93;1.23;;;10.30;99.90;;;;;;5021492;28;20488;-51
2022/04/07 08:05:53;;;;;;;6.63;1.40;;;10.30;99.90;;;;;;5018564;28;20890;-49
2022/04/07 08:08:20;;;;;;;1.70;1.23;;;10.40;99.90;;;;;;5020494;28;20492;-50
2022/04/07 08:10:47;;;;;;;6.70;1.20;;;10.40;99.90;;;;;;5038224;28;21204;-51
2022/04/07 08:13:14;;;;;;;11.13;1.83;;;10.60;99.90;;;;;;5041062;28;20589;-49
2022/04/07 08:15:41;;;;;;;4.13;1.17;;;10.60;99.90;;;;;;5053189;28;20481;-52
2022/04/07 08:18:09;;;;;;;5.83;0.90;;;10.60;99.90;;;;;;5043212;28;20494;-53
2022/04/07 08:20:36;;;;;;;7.50;1.43;;;10.50;99.90;;;;;;5020768;28;20492;-50
2022/04/07 08:23:03;;;;;;;1.50;0.87;;;10.50;99.90;;;;;;5025202;28;20484;-50
2022/04/07 08:25:29;;;;;;;1.50;0.80;;;10.60;99.90;;;;;;5018730;28;20515;-50
2022/04/07 08:27:56;;;;;;;7.03;1.10;;;10.80;99.90;;;;;;5020515;28;20521;-50
2022/04/07 08:30:23;;;;;;;1.57;0.80;;;10.70;99.90;;;;;;5026607;28;20964;-50
2022/04/07 08:32:49;;;;;;;3.07;1.07;;;10.80;99.90;;;;;;5043545;28;20493;-50
2022/04/07 08:35:17;;;;;;;7.20;1.10;;;10.80;99.90;;;;;;5053569;28;20486;-49
2022/04/07 08:37:44;;;;;;;1.50;0.70;;;10.80;99.90;;;;;;5024426;28;20481;-48
2022/04/07 08:40:11;;;;;;;1.80;0.80;;;11.00;99.90;;;;;;5019963;28;20883;-50
2022/04/07 08:42:38;;;;;;;5.33;1.03;;;11.00;99.90;;;;;;5021686;28;20481;-49
2022/04/07 08:45:06;;;;;;;2.10;0.87;;;10.90;99.90;;;;;;5018257;28;20496;-49
2022/04/07 08:47:34;;;;;;;2.40;1.27;;;10.90;99.90;;;;;;5019624;28;20522;-50
2022/04/07 08:50:03;;;;;;;6.20;1.33;;;10.80;99.90;;;;;;5020005;28;20488;-51
2022/04/07 08:52:33;;;;;;;1.80;0.90;;;10.80;99.90;;;;;;5020511;28;20567;-50
2022/04/07 08:55:00;;;;;;;2.10;1.30;;;10.50;99.90;;;;;;5018792;28;20490;-50
2022/04/07 08:57:29;;;;;;;3.80;1.10;;;10.60;99.90;;;;;;5019852;28;20528;-49
2022/04/07 08:59:56;;;;;;;2.10;1.00;;;10.30;99.90;;;;;;5019482;28;20545;-49
2022/04/07 09:02:23;;;;;;;1.60;0.70;;;10.30;99.90;;;;;;5036434;28;20482;-50
2022/04/07 09:04:56;;;;;;;2.23;0.80;;;10.30;99.90;;;;;;5035904;28;20841;-51
2022/04/07 09:07:32;;;;;;;1.50;0.70;;;10.30;99.90;;;;;;5022114;28;20979;-50
2022/04/07 09:09:59;;;;;;;1.60;0.80;;;10.30;99.90;;;;;;5039800;28;20480;-50
2022/04/07 09:12:27;;;;;;;1.90;0.70;;;10.30;99.90;;;;;;5033832;28;20577;-50
2022/04/07 09:14:56;;;;;;;1.40;0.60;;;10.40;99.90;;;;;;5052137;28;21141;-50
2022/04/07 09:17:23;;;;;;;2.43;1.00;;;10.30;99.90;;;;;;5050105;28;20568;-51
2022/04/07 09:19:51;;;;;;;2.00;1.00;;;10.30;99.90;;;;;;5049784;28;20904;-50
2022/04/07 09:22:18;;;;;;;3.03;1.00;;;10.30;99.90;;;;;;5049473;28;20559;-51
2022/04/07 09:24:46;;;;;;;1.70;0.80;;;10.50;99.90;;;;;;5044836;28;20473;-49
2022/04/07 09:27:13;;;;;;;1.60;0.77;;;10.50;99.90;;;;;;5044245;28;20482;-49
2022/04/07 09:29:42;;;;;;;8.00;1.10;;;10.70;99.90;;;;;;5047523;28;21429;-49
2022/04/07 09:32:19;;;;;;;2.20;1.03;;;10.80;99.90;;;;;;5054760;28;20517;-50
2022/04/07 09:34:51;;;;;;;1.90;1.00;;;10.80;99.90;;;;;;5044599;28;20473;-52
2022/04/07 09:37:21;;;;;;;1.60;0.80;;;10.70;99.90;;;;;;5042642;28;20493;-52
2022/04/07 09:39:50;;;;;;;1.53;0.70;;;10.80;99.90;;;;;;5067271;28;20472;-51
2022/04/07 09:42:24;;;;;;;3.30;1.00;;;10.70;99.90;;;;;;5063031;28;20843;-50
2022/04/07 09:44:52;;;;;;;1.60;0.77;;;10.80;99.90;;;;;;5038079;28;21360;-51
2022/04/07 09:47:20;;;;;;;1.80;0.90;;;10.60;99.90;;;;;;5043925;28;20500;-50
2022/04/07 09:49:48;;;;;;;6.20;1.50;;;10.50;99.90;;;;;;5049537;28;20561;-52
2022/04/07 09:52:19;;;;;;;1.70;0.70;;;10.60;99.90;;;;;;5042546;28;21230;-50
2022/04/07 09:54:48;;;;;;;1.60;0.60;;;;;;;;;;5047103;28;20482;-51
2022/04/07 09:57:18;;;;;;;1.83;0.80;;;10.70;99.90;;;;;;5044148;28;20475;-50
2022/04/07 09:59:46;;;;;;;4.20;0.80;;;10.70;99.90;;;;;;5044174;28;21367;-51
2022/04/07 10:02:13;;;;;;;7.93;1.00;;;10.70;99.90;;;;;;5043280;28;20498;-52
2022/04/07 10:04:40;;;;;;;1.50;0.73;;;10.80;99.90;;;;;;5047792;28;21087;-50
2022/04/07 10:07:11;;;;;;;1.90;0.83;;;10.80;99.90;;;;;;5040571;28;20815;-50
2022/04/07 10:09:39;;;;;;;1.40;0.60;;;10.80;99.90;;;;;;5053264;28;20555;-50
2022/04/07 10:12:06;;;;;;;1.80;0.70;;;10.80;99.90;;;;;;5062259;28;20838;-51
2022/04/07 10:14:36;;;;;;;1.60;0.80;;;10.80;99.90;;;;;;5042177;28;20488;-52
2022/04/07 10:17:04;;;;;;;8.73;1.00;;;10.80;99.90;;;;;;5045563;28;20510;-50
2022/04/07 10:19:36;;;;;;;1.50;0.80;;;10.80;99.90;;;;;;5061547;28;20480;-49
2022/04/07 10:22:26;;;;;;;1.50;0.70;;;10.90;99.90;;;;;;5055771;28;20473;-51
2022/04/07 10:24:56;;;;;;;1.43;0.70;;;10.90;99.90;;;;;;5044433;28;21233;-49
2022/04/07 10:27:26;;;;;;;1.80;0.70;;;11.00;99.90;;;;;;5032585;28;20467;-50
2022/04/07 10:30:11;;;;;;;2.63;0.80;;;11.20;99.90;;;;;;5043720;28;20557;-51
2022/04/07 10:32:40;;;;;;;1.50;0.70;;;11.20;99.90;;;;;;5044177;28;20501;-50
2022/04/07 10:35:08;;;;;;;1.50;0.70;;;11.20;99.90;;;;;;5042795;28;20509;-50
2022/04/07 10:37:45;;;;;;;2.23;0.70;;;11.30;99.90;;;;;;5042539;28;20548;-48
2022/04/07 10:40:38;;;;;;;6.90;1.10;;;11.30;99.90;;;;;;5050677;28;21019;-51
2022/04/07 10:43:18;;;;;;;1.50;0.70;;;11.60;99.90;;;;;;5034936;28;20483;-49
2022/04/07 10:45:47;;;;;;;1.60;0.70;;;11.60;99.90;;;;;;5048696;28;20526;-50
2022/04/07 10:48:36;;;;;;;1.50;0.70;;;11.50;99.90;;;;;;5040670;28;21106;-51
2022/04/07 10:51:04;;;;;;;1.60;0.70;;;11.70;99.90;;;;;;5050464;28;20475;-50
2022/04/07 10:53:33;;;;;;;1.50;0.80;;;11.60;99.90;;;;;;5027170;28;20492;-50
2022/04/07 10:56:02;;;;;;;3.47;1.03;;;11.70;99.90;;;;;;5020427;28;21069;-50
2022/04/07 10:58:43;;;;;;;2.37;0.73;;;11.50;99.90;;;;;;5021627;28;20489;-50
2022/04/07 11:01:48;;;;;;;4.30;0.70;;;11.50;99.90;;;;;;5021940;28;20850;-50
2022/04/07 11:05:16;;;;;;;4.70;1.10;;;11.40;99.90;;;;;;5038171;28;20524;-49
2022/04/07 11:07:52;;;;;;;1.40;0.60;;;11.30;99.90;;;;;;5019644;28;21014;-51
2022/04/07 11:10:42;;;;;;;1.70;0.90;;;11.00;99.90;;;;;;5021165;28;20837;-50
2022/04/07 11:13:09;;;;;;;3.20;0.93;;;11.10;99.90;;;;;;5022793;28;20473;-49
2022/04/07 11:15:57;;;;;;;1.53;0.70;;;11.00;99.90;;;;;;5026232;28;20487;-49
2022/04/07 11:18:46;;;;;;;1.43;0.77;;;11.00;99.90;;;;;;5030720;28;20475;-50
2022/04/07 11:21:13;;;;;;;2.37;0.70;;;11.10;99.90;;;;;;5039985;28;20531;-49
2022/04/07 11:23:42;;;;;;;1.50;0.70;;;11.10;99.90;;;;;;5044429;28;20481;-49
2022/04/07 11:26:13;;;;;;;2.30;1.07;;;11.10;99.90;;;;;;5043428;28;20533;-49
2022/04/07 11:28:40;;;;;;;2.53;0.70;;;11.10;99.90;;;;;;5045708;28;20480;-50
2022/04/07 11:31:07;;;;;;;1.70;0.80;;;11.00;99.90;;;;;;5030707;28;20488;-50
2022/04/07 11:33:39;;;;;;;2.10;0.83;;;11.20;99.90;;;;;;5017565;28;21053;-49
2022/04/07 11:36:37;;;;;;;1.50;0.70;;;11.30;99.90;;;;;;5025844;28;20548;-49
2022/04/07 11:39:04;;;;;;;7.00;0.90;;;11.30;99.90;;;;;;5025317;28;20495;-49
2022/04/07 11:41:42;;;;;;;1.50;0.70;;;11.20;99.90;;;;;;5039469;28;21213;-50
2022/04/07 11:44:11;;;;;;;1.50;0.60;;;11.40;99.90;;;;;;5019684;28;20480;-50
2022/04/07 11:46:38;;;;;;;1.50;0.70;;;11.40;99.90;;;;;;5045596;28;20486;-49
2022/04/07 11:49:07;;;;;;;1.60;0.80;;;11.40;99.90;;;;;;5050099;28;20526;-50
2022/04/07 11:51:36;;;;;;;3.53;1.00;;;11.30;99.90;;;;;;5039998;28;22116;-49
2022/04/07 11:54:03;;;;;;;1.63;0.67;;;11.30;99.90;;;;;;5019422;28;20818;-48
2022/04/07 11:56:31;;;;;;;1.50;0.67;;;11.20;99.90;;;;;;5040598;28;20574;-49
2022/04/07 11:59:01;;;;;;;6.43;0.90;;;11.20;99.90;;;;;;5032091;28;20474;-50
2022/04/07 12:01:29;;;;;;;2.03;1.00;;;11.40;99.90;;;;;;5032423;28;20477;-49
2022/04/07 12:03:57;;;;;;;1.47;0.60;;;;;;;;;;5019203;28;20490;-49
2022/04/07 12:06:26;;;;;;;2.30;0.97;;;11.60;99.90;;;;;;5025314;28;20531;-51
2022/04/07 12:08:55;;;;;;;2.10;0.70;;;11.50;99.90;;;;;;5041370;28;20473;-50
2022/04/07 12:11:22;;;;;;;5.73;1.27;;;11.40;99.90;;;;;;5032539;28;20982;-49
2022/04/07 12:13:51;;;;;;;1.80;0.70;;;11.50;99.90;;;;;;5055275;28;20484;-49
2022/04/07 12:16:18;;;;;;;1.57;0.80;;;11.40;99.90;;;;;;5056651;28;20486;-52
2022/04/07 12:18:53;;;;;;;3.97;1.53;;;11.50;99.90;;;;;;5032998;28;20500;-50
2022/04/07 12:21:20;;;;;;;1.60;0.80;;;11.40;99.90;;;;;;5022182;28;20488;-51
2022/04/07 12:23:49;;;;;;;1.70;0.80;;;11.30;99.90;;;;;;5027062;28;20482;-52
2022/04/07 12:26:16;;;;;;;7.73;1.20;;;11.40;99.90;;;;;;5031618;28;20596;-51
2022/04/07 12:28:42;;;;;;;2.23;0.80;;;11.50;99.90;;;;;;5019719;28;20546;-52
2022/04/07 12:31:13;;;;;;;1.50;0.70;;;11.50;99.90;;;;;;5021337;28;20479;-51
2022/04/07 12:33:42;;;;;;;4.40;0.73;;;11.60;99.90;;;;;;5020133;28;20491;-52
2022/04/07 12:36:10;;;;;;;1.60;0.67;;;11.50;99.90;;;;;;5020530;28;20476;-51
2022/04/07 12:38:37;;;;;;;1.60;0.80;;;11.40;99.90;;;;;;5021486;28;20547;-51
2022/04/07 12:41:13;;;;;;;2.20;0.90;;;11.60;99.90;;;;;;5024601;28;20750;-51
2022/04/07 12:43:50;;;;;;;2.40;0.70;;;11.40;99.90;;;;;;5019165;28;20575;-51
2022/04/07 12:46:17;;;;;;;1.60;0.83;;;11.50;99.90;;;;;;5020032;28;20491;-51
2022/04/07 12:49:05;;;;;;;1.50;0.70;;;11.60;99.90;;;;;;5021718;28;20933;-53
2022/04/07 12:51:33;;;;;;;5.83;0.83;;;11.50;99.90;;;;;;5030573;28;20602;-52
2022/04/07 12:54:08;;;;;;;1.50;0.80;;;11.50;99.90;;;;;;5043688;28;20485;-52
2022/04/07 12:56:37;;;;;;;1.77;1.07;;;11.60;99.90;;;;;;5048605;28;20528;-49
2022/04/07 12:59:05;;;;;;;1.53;0.90;;;11.50;99.90;;;;;;5023972;28;20516;-50